sim
Sign-in with your pilot id or email,
or register
Callsign
Passwort

Schedule Details

Flight Number: EWG2682 (3)
Departure: Stuttgart Airport (EDDS) at 11:30
Arrival: Thessaloniki International Airport (LGTS) at 13:50
Route: Eurowings Passenger Schedule. Enter filed route here before submitting Pirep.

Weather Information
Getting current METAR information for EDDS 211750Z 09006KT CAVOK 18/11 Q1026 NOSIG
Getting current METAR information for LGTS 211750Z 16005KT CAVOK 29/13 Q1016 NOSIG

Schedule Frequency

Route Map